createdAt,value
2022-10-02T00:02:37.945Z,20.42
2022-10-02T00:05:47.332Z,17.42
2022-10-02T00:08:40.157Z,17.77
2022-10-02T00:11:18.875Z,18.40
2022-10-02T00:13:54.348Z,18.45
2022-10-02T00:16:35.035Z,17.92
2022-10-02T00:19:02.293Z,19.15
2022-10-02T00:21:44.340Z,22.20
2022-10-02T00:24:24.407Z,18.98
2022-10-02T00:26:55.379Z,20.23
2022-10-02T00:29:38.062Z,19.63
2022-10-02T00:32:23.382Z,20.83
2022-10-02T00:35:02.879Z,20.95
2022-10-02T00:38:00.343Z,19.77
2022-10-02T00:40:50.361Z,21.95
2022-10-02T00:43:44.354Z,20.95
2022-10-02T00:47:04.234Z,21.08
2022-10-02T00:49:39.513Z,21.20
2022-10-02T00:52:31.878Z,22.05
2022-10-02T00:55:37.275Z,20.38
2022-10-02T00:58:40.897Z,19.45
2022-10-02T01:01:20.350Z,19.65
2022-10-02T01:03:56.536Z,21.30
2022-10-02T01:06:25.354Z,19.92
2022-10-02T01:08:52.308Z,21.65
2022-10-02T01:11:21.534Z,20.92
2022-10-02T01:13:49.624Z,20.75
2022-10-02T01:16:16.857Z,20.08
2022-10-02T01:18:48.004Z,21.45
2022-10-02T01:21:18.841Z,22.70
2022-10-02T01:24:00.234Z,18.83
2022-10-02T01:26:27.968Z,19.98
2022-10-02T01:28:56.368Z,20.00
2022-10-02T01:31:25.140Z,18.92
2022-10-02T01:33:52.642Z,19.80
2022-10-02T01:36:21.542Z,20.73
2022-10-02T01:38:50.067Z,19.67
2022-10-02T01:41:16.754Z,20.55
2022-10-02T01:43:52.285Z,21.38
2022-10-02T01:46:22.256Z,21.45
2022-10-02T01:49:08.672Z,20.40
2022-10-02T01:52:13.106Z,20.98
2022-10-02T01:55:07.865Z,21.10
2022-10-02T01:58:02.787Z,20.92
2022-10-02T02:00:46.367Z,21.73
2022-10-02T02:03:29.640Z,22.38
2022-10-02T02:06:43.276Z,21.50
2022-10-02T02:09:13.921Z,21.83
2022-10-02T02:11:51.311Z,22.33
2022-10-02T02:14:33.315Z,20.88
2022-10-02T02:17:19.151Z,22.02
2022-10-02T02:19:57.281Z,21.00
2022-10-02T02:22:28.829Z,21.55
2022-10-02T02:25:06.726Z,20.58
2022-10-02T02:27:39.565Z,22.02
2022-10-02T02:30:12.176Z,19.27
2022-10-02T02:32:50.259Z,18.38
2022-10-02T02:35:45.540Z,23.77
2022-10-02T02:38:21.813Z,20.50
2022-10-02T02:43:59.824Z,21.60
2022-10-02T02:47:12.838Z,19.20
2022-10-02T02:50:08.381Z,20.00
2022-10-02T02:52:45.354Z,19.77
2022-10-02T02:55:44.890Z,20.33
2022-10-02T02:58:20.953Z,21.17
2022-10-02T03:00:55.802Z,21.30
2022-10-02T03:03:25.777Z,20.75
2022-10-02T03:06:21.403Z,20.15
2022-10-02T03:08:53.622Z,22.40
2022-10-02T03:11:53.327Z,24.65
2022-10-02T03:14:46.369Z,24.40
2022-10-02T03:17:44.805Z,23.83
2022-10-02T03:20:26.180Z,20.50
2022-10-02T03:22:55.646Z,21.98
2022-10-02T03:25:32.131Z,20.17
2022-10-02T03:28:56.431Z,20.48
2022-10-02T03:31:26.999Z,16.98
2022-10-02T03:33:55.462Z,18.40
2022-10-02T03:36:24.679Z,19.00
2022-10-02T03:39:19.928Z,16.55
2022-10-02T03:41:45.368Z,16.98
2022-10-02T03:44:12.304Z,15.70
2022-10-02T03:46:44.533Z,17.63
2022-10-02T03:49:11.319Z,16.15
2022-10-02T03:51:40.797Z,14.52
2022-10-02T03:54:20.506Z,14.73
2022-10-02T03:56:57.982Z,15.60
2022-10-02T04:00:00.879Z,14.88
2022-10-02T04:02:38.198Z,18.50
2022-10-02T04:05:28.940Z,20.38
2022-10-02T04:08:02.991Z,18.35
2022-10-02T04:10:51.058Z,17.83
2022-10-02T04:13:36.991Z,17.38
2022-10-02T04:16:35.988Z,16.38
2022-10-02T04:19:39.333Z,18.33
2022-10-02T04:22:19.009Z,13.35
2022-10-02T04:24:49.363Z,13.82
2022-10-02T04:27:49.497Z,14.50
2022-10-02T04:30:18.478Z,15.68
2022-10-02T04:32:46.036Z,18.73
2022-10-02T04:35:38.872Z,18.30
2022-10-02T04:38:39.485Z,17.02
2022-10-02T04:41:55.501Z,17.00
2022-10-02T04:44:31.243Z,20.50
2022-10-02T04:47:22.454Z,24.73
2022-10-02T04:50:09.546Z,22.27
2022-10-02T04:52:52.114Z,27.73
2022-10-02T04:55:52.801Z,19.45
2022-10-02T04:58:47.332Z,16.50
2022-10-02T05:02:09.556Z,19.05
2022-10-02T05:04:55.598Z,17.92
2022-10-02T05:07:37.567Z,19.67
2022-10-02T05:10:31.557Z,18.45
2022-10-02T05:13:19.991Z,20.10
2022-10-02T05:16:23.673Z,20.73
2022-10-02T05:19:17.114Z,23.90
2022-10-02T05:21:58.703Z,24.52
2022-10-02T05:24:49.298Z,24.30
2022-10-02T05:27:41.094Z,26.30
2022-10-02T05:30:10.318Z,24.55
2022-10-02T05:32:58.328Z,25.83
2022-10-02T05:36:02.673Z,23.33
2022-10-02T05:39:09.241Z,22.50
2022-10-02T05:41:48.286Z,19.20
2022-10-02T05:44:20.413Z,20.13
2022-10-02T05:46:57.686Z,21.90
2022-10-02T05:50:05.172Z,21.00
2022-10-02T05:52:42.804Z,19.42
2022-10-02T05:55:28.402Z,22.17
2022-10-02T05:58:03.400Z,24.25
2022-10-02T06:01:18.036Z,22.98
2022-10-02T06:04:05.972Z,25.02
2022-10-02T06:06:42.187Z,24.73
2022-10-02T06:09:20.225Z,23.52
2022-10-02T06:11:58.036Z,23.88
2022-10-02T06:14:52.868Z,21.52
2022-10-02T06:17:31.131Z,22.55
2022-10-02T06:20:25.314Z,22.27
2022-10-02T06:22:59.383Z,19.58
2022-10-02T06:25:42.448Z,24.42
2022-10-02T06:28:38.013Z,18.92
2022-10-02T06:31:20.163Z,18.05
2022-10-02T06:33:48.181Z,18.75
2022-10-02T06:36:22.477Z,19.52
2022-10-02T06:39:16.082Z,20.00
2022-10-02T06:41:50.048Z,17.23
2022-10-02T06:44:48.342Z,23.42
2022-10-02T06:47:54.181Z,20.58
2022-10-02T06:50:39.591Z,13.95
2022-10-02T06:53:28.360Z,18.02
2022-10-02T06:56:09.260Z,21.08
2022-10-02T06:59:06.086Z,15.73
2022-10-02T07:01:57.584Z,15.90
2022-10-02T07:04:31.011Z,13.55
2022-10-02T07:07:23.139Z,15.63
2022-10-02T07:10:19.276Z,18.13
2022-10-02T07:12:59.196Z,16.23
2022-10-02T07:16:30.166Z,13.88
2022-10-02T07:19:34.418Z,12.98
2022-10-02T07:22:45.663Z,12.40
2022-10-02T07:25:44.400Z,18.75
2022-10-02T07:28:38.024Z,11.38
2022-10-02T07:31:48.574Z,11.73
2022-10-02T07:37:16.303Z,13.02
2022-10-02T07:40:17.168Z,12.90
2022-10-02T07:43:02.693Z,15.13
2022-10-02T07:45:39.105Z,14.45
2022-10-02T07:48:22.688Z,12.38
2022-10-02T07:50:52.080Z,13.73
2022-10-02T07:53:29.074Z,12.90
2022-10-02T07:55:56.994Z,15.90
2022-10-02T07:58:50.867Z,11.45
2022-10-02T08:01:22.292Z,15.93
2022-10-02T08:03:55.252Z,10.60
2022-10-02T08:06:22.636Z,16.38
2022-10-02T08:09:06.243Z,13.73
2022-10-02T08:11:40.399Z,13.35
2022-10-02T08:14:41.229Z,15.80
2022-10-02T08:17:14.275Z,11.82
2022-10-02T08:19:50.765Z,14.48
2022-10-02T08:22:41.051Z,13.57
2022-10-02T08:25:39.612Z,17.10
2022-10-02T08:28:18.070Z,14.60
2022-10-02T08:30:44.827Z,14.55
2022-10-02T08:33:22.702Z,11.45
2022-10-02T08:35:52.348Z,12.02
2022-10-02T08:39:06.527Z,12.55
2022-10-02T08:41:41.612Z,13.23
2022-10-02T08:44:36.193Z,8.05
2022-10-02T08:47:09.990Z,15.55
2022-10-02T08:49:52.553Z,13.07
2022-10-02T08:52:43.518Z,14.07
2022-10-02T08:55:13.169Z,14.82
2022-10-02T08:58:04.346Z,17.52
2022-10-02T09:01:24.705Z,14.50
2022-10-02T09:04:28.768Z,13.23
2022-10-02T09:07:13.917Z,10.00
2022-10-02T09:10:06.079Z,13.43
2022-10-02T09:13:00.525Z,16.05
2022-10-02T09:15:55.445Z,18.08
2022-10-02T09:19:03.159Z,16.08
2022-10-02T09:21:43.879Z,11.45
2022-10-02T09:24:47.621Z,16.58
2022-10-02T09:27:34.067Z,17.17
2022-10-02T09:30:21.059Z,11.68
2022-10-02T09:33:05.015Z,14.00
2022-10-02T09:35:55.908Z,13.75
2022-10-02T09:38:27.255Z,13.10
2022-10-02T09:41:06.146Z,12.35
2022-10-02T09:43:51.773Z,14.43
2022-10-02T09:46:40.261Z,17.10
2022-10-02T09:49:32.064Z,15.48
2022-10-02T09:52:29.141Z,10.10
2022-10-02T09:55:22.510Z,13.70
2022-10-02T09:58:29.596Z,13.32
2022-10-02T10:01:16.867Z,13.65
2022-10-02T10:03:52.497Z,14.07
2022-10-02T10:06:39.677Z,15.18
2022-10-02T10:09:22.857Z,13.32
2022-10-02T10:12:08.580Z,15.50
2022-10-02T10:15:00.138Z,12.77
2022-10-02T10:17:41.958Z,17.08
2022-10-02T10:20:37.871Z,10.70
2022-10-02T10:23:31.857Z,17.35
2022-10-02T10:26:34.585Z,14.27
2022-10-02T10:29:25.903Z,15.23
2022-10-02T10:32:27.753Z,13.95
2022-10-02T10:35:37.374Z,11.48
2022-10-02T10:38:32.942Z,20.10
2022-10-02T10:41:22.831Z,7.63
2022-10-02T10:44:08.196Z,12.70
2022-10-02T10:47:20.087Z,12.13
2022-10-02T10:50:04.882Z,13.45
2022-10-02T10:52:51.720Z,11.35
2022-10-02T10:55:33.330Z,18.52
2022-10-02T10:58:21.231Z,12.15
2022-10-02T11:01:07.290Z,15.10
2022-10-02T11:03:58.241Z,15.63
2022-10-02T11:06:54.324Z,9.88
2022-10-02T11:09:30.911Z,12.02
2022-10-02T11:12:22.943Z,9.77
2022-10-02T11:14:59.171Z,13.52
2022-10-02T11:17:50.253Z,11.60
2022-10-02T11:20:44.340Z,12.15
2022-10-02T11:23:53.451Z,14.30
2022-10-02T11:26:40.363Z,12.93
2022-10-02T11:29:42.964Z,13.10
2022-10-02T11:32:28.337Z,15.18
2022-10-02T11:35:14.183Z,6.47
2022-10-02T11:38:06.720Z,14.18
2022-10-02T11:40:55.551Z,13.52
2022-10-02T11:43:43.183Z,11.60
2022-10-02T11:46:36.664Z,10.27
2022-10-02T11:49:38.734Z,14.25
2022-10-02T11:52:30.597Z,13.77
2022-10-02T11:55:16.104Z,13.68
2022-10-02T11:57:52.276Z,10.18
2022-10-02T12:00:41.561Z,9.55
2022-10-02T12:03:31.765Z,10.48
2022-10-02T12:06:16.023Z,6.68
2022-10-02T12:09:10.209Z,14.85
2022-10-02T12:12:24.601Z,12.73
2022-10-02T12:15:24.036Z,16.23
2022-10-02T12:18:21.867Z,11.23
2022-10-02T12:21:43.133Z,14.05
2022-10-02T12:24:44.607Z,7.38
2022-10-02T12:27:23.554Z,9.38
2022-10-02T12:29:51.293Z,9.93
2022-10-02T12:32:38.770Z,16.15
2022-10-02T12:35:24.250Z,12.00
2022-10-02T12:38:13.215Z,21.20
2022-10-02T12:41:08.193Z,12.10
2022-10-02T12:43:57.455Z,13.63
2022-10-02T12:46:47.916Z,14.18
2022-10-02T12:49:53.643Z,9.50
2022-10-02T12:52:52.725Z,9.23
2022-10-02T12:55:38.292Z,10.55
2022-10-02T12:58:15.294Z,9.63
2022-10-02T13:01:09.936Z,15.15
2022-10-02T13:04:16.870Z,16.05
2022-10-02T13:06:58.445Z,11.65
2022-10-02T13:09:53.935Z,10.65
2022-10-02T13:12:44.733Z,10.25
2022-10-02T13:15:46.312Z,10.00
2022-10-02T13:18:34.182Z,8.40
2022-10-02T13:21:11.979Z,96.50
2022-10-02T13:23:56.535Z,47.67
2022-10-02T13:26:35.714Z,21.75
2022-10-02T13:29:16.724Z,24.75
2022-10-02T13:31:56.606Z,15.45
2022-10-02T13:34:47.446Z,19.70
2022-10-02T13:37:26.530Z,10.48
2022-10-02T13:40:19.698Z,22.65
2022-10-02T13:43:19.911Z,13.55
2022-10-02T13:46:06.170Z,24.17
2022-10-02T13:49:23.548Z,74.88
2022-10-02T13:52:19.368Z,31.95
2022-10-02T13:54:57.940Z,24.75
2022-10-02T13:57:59.704Z,68.03
2022-10-02T14:00:53.168Z,34.10
2022-10-02T14:03:39.047Z,22.92
2022-10-02T14:06:25.842Z,19.63
2022-10-02T14:09:07.477Z,20.08
2022-10-02T14:12:01.466Z,19.02
2022-10-02T14:15:14.482Z,17.40
2022-10-02T14:17:44.184Z,19.38
2022-10-02T14:20:39.582Z,16.55
2022-10-02T14:23:24.293Z,20.65
2022-10-02T14:26:16.992Z,17.95
2022-10-02T14:29:23.355Z,21.92
2022-10-02T14:32:21.479Z,16.77
2022-10-02T14:35:12.263Z,16.05
2022-10-02T14:37:59.362Z,14.02
2022-10-02T14:40:37.626Z,15.20
2022-10-02T14:43:31.212Z,11.27
2022-10-02T14:46:03.183Z,13.70
2022-10-02T14:49:00.622Z,18.05
2022-10-02T14:51:51.818Z,54.47
2022-10-02T14:54:49.370Z,110.13
2022-10-02T14:57:19.264Z,37.10
2022-10-02T14:59:55.710Z,53.65
2022-10-02T15:02:57.702Z,83.20
2022-10-02T15:05:40.564Z,47.45
2022-10-02T15:08:18.598Z,62.00
2022-10-02T15:10:49.209Z,159.07
2022-10-02T15:13:39.745Z,91.50
2022-10-02T15:16:34.700Z,77.63
2022-10-02T15:19:08.175Z,26.25
2022-10-02T15:21:59.138Z,25.25
2022-10-02T15:24:43.889Z,21.33
2022-10-02T15:27:16.183Z,15.15
2022-10-02T15:30:05.716Z,21.00
2022-10-02T15:32:58.571Z,20.50
2022-10-02T15:35:36.291Z,13.85
2022-10-02T15:38:43.178Z,18.48
2022-10-02T15:41:13.019Z,18.65
2022-10-02T15:43:45.388Z,14.32
2022-10-02T15:46:40.874Z,18.67
2022-10-02T15:49:56.665Z,11.80
2022-10-02T15:52:44.089Z,14.70
2022-10-02T15:55:34.141Z,16.90
2022-10-02T15:58:17.376Z,16.70
2022-10-02T16:01:02.367Z,18.75
2022-10-02T16:03:40.234Z,11.48
2022-10-02T16:06:41.720Z,10.27
2022-10-02T16:09:14.364Z,18.20
2022-10-02T16:12:07.575Z,20.05
2022-10-02T16:14:53.339Z,16.30
2022-10-02T16:17:36.409Z,11.77
2022-10-02T16:20:32.557Z,15.43
2022-10-02T16:23:04.987Z,16.23
2022-10-02T16:25:56.838Z,19.75
2022-10-02T16:29:02.632Z,22.42
2022-10-02T16:32:03.088Z,22.08
2022-10-02T16:37:26.212Z,23.88
2022-10-02T16:40:01.549Z,26.77
2022-10-02T16:42:46.046Z,21.60
2022-10-02T16:45:37.372Z,20.52
2022-10-02T16:48:14.778Z,20.55
2022-10-02T16:50:47.596Z,26.55
2022-10-02T16:53:29.549Z,23.30
2022-10-02T16:56:11.226Z,21.40
2022-10-02T16:59:01.388Z,19.98
2022-10-02T17:01:53.340Z,18.88
2022-10-02T17:04:40.928Z,21.13
2022-10-02T17:07:46.043Z,19.70
2022-10-02T17:10:37.339Z,19.38
2022-10-02T17:13:09.609Z,22.60
2022-10-02T17:16:04.458Z,17.85
2022-10-02T17:18:49.702Z,21.55
2022-10-02T17:21:24.282Z,19.25
2022-10-02T17:24:42.961Z,15.02
2022-10-02T17:27:39.852Z,15.27
2022-10-02T17:30:16.478Z,20.02
2022-10-02T17:32:46.264Z,12.82
2022-10-02T17:35:16.994Z,15.52
2022-10-02T17:38:08.943Z,14.02
2022-10-02T17:40:56.573Z,14.13
2022-10-02T17:43:39.333Z,17.30
2022-10-02T17:46:34.252Z,16.88
2022-10-02T17:49:10.245Z,18.38
2022-10-02T17:52:22.790Z,15.20
2022-10-02T17:55:21.653Z,20.33
2022-10-02T17:58:13.144Z,24.27
2022-10-02T18:01:06.495Z,27.75
2022-10-02T18:03:55.682Z,34.30
2022-10-02T18:06:42.017Z,22.48
2022-10-02T18:09:14.987Z,23.15
2022-10-02T18:12:10.146Z,21.00
2022-10-02T18:14:52.107Z,18.60
2022-10-02T18:17:26.873Z,18.40
2022-10-02T18:20:19.257Z,17.63
2022-10-02T18:22:52.961Z,18.83
2022-10-02T18:25:49.217Z,21.95
2022-10-02T18:28:34.698Z,21.42
2022-10-02T18:31:53.929Z,20.80
2022-10-02T18:34:48.983Z,22.55
2022-10-02T18:37:18.671Z,24.02
2022-10-02T18:40:26.569Z,31.88
2022-10-02T18:43:15.508Z,25.35
2022-10-02T18:45:56.029Z,18.50
2022-10-02T18:48:52.426Z,19.75
2022-10-02T18:51:37.787Z,14.60
2022-10-02T18:54:30.803Z,16.58
2022-10-02T18:57:14.504Z,15.65
2022-10-02T18:59:55.604Z,11.90
2022-10-02T19:02:40.832Z,14.85
2022-10-02T19:05:33.096Z,14.00
2022-10-02T19:08:24.368Z,13.68
2022-10-02T19:10:51.491Z,14.48
2022-10-02T19:13:27.273Z,15.90
2022-10-02T19:15:58.648Z,13.48
2022-10-02T19:18:36.606Z,13.07
2022-10-02T19:21:11.915Z,15.48
2022-10-02T19:24:02.949Z,13.25
2022-10-02T19:26:36.434Z,13.88
2022-10-02T19:29:24.750Z,15.82
2022-10-02T19:31:52.137Z,20.35
2022-10-02T19:34:30.542Z,24.30
2022-10-02T19:37:00.289Z,22.80
2022-10-02T19:39:31.291Z,21.83
2022-10-02T19:42:06.123Z,21.80
2022-10-02T19:44:38.664Z,21.67
2022-10-02T19:47:28.585Z,21.48
2022-10-02T19:49:57.997Z,18.80
2022-10-02T19:52:48.075Z,18.00
2022-10-02T19:55:39.947Z,16.67
2022-10-02T19:58:20.069Z,19.17
2022-10-02T20:00:51.905Z,16.75
2022-10-02T20:03:26.473Z,16.15
2022-10-02T20:06:03.681Z,20.60
2022-10-02T20:08:36.973Z,19.75
2022-10-02T20:11:29.836Z,18.67
2022-10-02T20:14:42.709Z,16.65
2022-10-02T20:17:12.787Z,17.80
2022-10-02T20:20:03.073Z,17.20
2022-10-02T20:22:39.136Z,14.63
2022-10-02T20:25:16.054Z,13.65
2022-10-02T20:27:53.328Z,10.93
2022-10-02T20:30:22.550Z,10.85
2022-10-02T20:32:53.005Z,12.80
2022-10-02T20:38:22.035Z,11.30
2022-10-02T20:40:53.540Z,12.18
2022-10-02T20:43:31.120Z,9.93
2022-10-02T20:46:38.250Z,9.73
2022-10-02T20:49:49.863Z,11.13
2022-10-02T20:53:06.061Z,11.57
2022-10-02T20:55:59.048Z,15.05
2022-10-02T20:58:36.747Z,10.82
2022-10-02T21:01:36.407Z,9.48
2022-10-02T21:04:25.843Z,8.20
2022-10-02T21:07:26.000Z,17.13
2022-10-02T21:10:42.930Z,10.18
2022-10-02T21:13:43.457Z,8.88
2022-10-02T21:18:54.679Z,12.45
2022-10-02T21:21:53.737Z,10.60
2022-10-02T21:24:45.375Z,13.88
2022-10-02T21:28:00.736Z,15.27
2022-10-02T21:31:06.875Z,8.93
2022-10-02T21:33:42.122Z,10.52
2022-10-02T21:36:21.497Z,12.30
2022-10-02T21:39:26.064Z,13.25
2022-10-02T21:42:37.328Z,14.63
2022-10-02T21:45:14.442Z,18.48
2022-10-02T21:48:31.719Z,17.05
2022-10-02T21:51:38.935Z,14.40
2022-10-02T21:54:15.026Z,15.48
2022-10-02T21:56:52.377Z,19.70
2022-10-02T21:59:25.239Z,16.90
2022-10-02T22:02:09.905Z,14.23
2022-10-02T22:05:14.416Z,16.05
2022-10-02T22:07:52.840Z,17.67
2022-10-02T22:10:49.988Z,16.60
2022-10-02T22:13:36.889Z,17.98
2022-10-02T22:16:09.150Z,21.55
2022-10-02T22:18:59.305Z,14.88
2022-10-02T22:21:37.988Z,15.35
2022-10-02T22:24:35.671Z,16.42
2022-10-02T22:27:21.358Z,17.27
2022-10-02T22:29:53.829Z,19.83
2022-10-02T22:32:41.929Z,17.48
2022-10-02T22:38:48.489Z,15.02
2022-10-02T22:42:18.343Z,17.65
2022-10-02T22:44:52.603Z,20.83
2022-10-02T22:47:34.593Z,16.58
2022-10-02T22:50:18.630Z,20.80
2022-10-02T22:52:46.176Z,22.05
2022-10-02T22:55:34.038Z,27.00
2022-10-02T22:58:23.356Z,24.42
2022-10-02T23:00:59.650Z,27.58
2022-10-02T23:03:40.639Z,27.23
2022-10-02T23:06:31.386Z,23.45
2022-10-02T23:09:31.421Z,28.58
2022-10-02T23:12:16.179Z,23.17
2022-10-02T23:15:27.981Z,22.38
2022-10-02T23:18:04.547Z,20.65
2022-10-02T23:21:07.140Z,21.23
2022-10-02T23:24:01.557Z,21.50
2022-10-02T23:26:48.557Z,18.90
2022-10-02T23:29:31.813Z,18.98
2022-10-02T23:32:32.910Z,20.35
2022-10-02T23:35:12.879Z,17.95
2022-10-02T23:38:04.682Z,21.52
2022-10-02T23:41:11.684Z,16.70
2022-10-02T23:43:58.710Z,21.55
2022-10-02T23:46:31.736Z,19.08
2022-10-02T23:49:06.916Z,19.40
2022-10-02T23:51:58.858Z,19.27
2022-10-02T23:55:01.236Z,18.60
2022-10-02T23:57:58.688Z,18.92
